SBBE/BEL METAR and TAF weather

Enter ICAO airport designator
Station Type Date Time Source
SBBE METAR 2019/10/22 16:00 UTC NOAA

SBBE 221600Z 03008KT 2000 TSRA SCT030 FEW033CB 25/21 Q1011


Station Type Date Time Source
SBBE Decoded METAR 2019/10/22 16:00 UTC NOAA

Belem Aeroporto , Brazil (SBBE) 01-23S 048-29W 16M
Oct 22, 2019 - 12:00 PM EDT / 2019.10.22 1600 UTC
Wind: from the NNE (030 degrees) at 9 MPH (8 KT):0
Visibility: 1 mile(s):0
Sky conditions: partly cloudy
Weather: rain with thunder; Cumulonimbus clouds observed
Temperature: 77 F (25 C)
Dew Point: 69 F (21 C)
Relative Humidity: 78%
Pressure (altimeter): 29.85 in. Hg (1011 hPa)
ob: SBBE 221600Z 03008KT 2000 TSRA SCT030 FEW033CB 25/21 Q1011
cycle: 16

Station Type Date Time Source
SBBE TAF 2019/10/22 18:03 UTC NOAA

TAF TAF SBBE 221530Z 2218/2318 35015KT 9999 BKN030 FEW035TCU TN24/2308Z TX32/2317Z
TEMPO 2218/2223 02015KT 4000 TSRA BKN017 FEW030CB
BECMG 2223/2301 06005KT SCT025
BECMG 2302/2304 8000 NSC
BECMG 2307/2309 FEW012
BECMG 2310/2312 FEW017
BECMG 2313/2315 SCT030
BECMG 2316/2318 35015KT 9999 BKN030 FEW035TCU
RMK PGS

Example: see airport list